Time;durP1;ratioP1;P1;durP2;ratioP2;P2;SDS_P1;SDS_P2;PMS_P1;PMS_P2;Temp;Humidity;BMP_temperature;BMP_pressure;BME280_temperature;BME280_humidity;BME280_pressure;Samples;Min_cycle;Max_cycle;Signal;HPM_P1;HPM_P2
2022/05/28 00:00:52;;;;;;;9.70;4.37;;;14.60;63.10;;;;;;5003571;28;20183;-87
2022/05/28 00:03:18;;;;;;;12.82;4.65;;;14.60;63.30;;;;;;5003690;28;20454;-87
2022/05/28 00:05:44;;;;;;;15.85;4.60;;;14.60;64.10;;;;;;5003471;28;20211;-87
2022/05/28 00:08:10;;;;;;;11.38;5.20;;;14.50;64.20;;;;;;5022871;28;20653;-89
2022/05/28 00:10:36;;;;;;;13.40;4.90;;;14.50;64.30;;;;;;5001695;28;20210;-87
2022/05/28 00:13:03;;;;;;;17.23;4.90;;;14.50;64.20;;;;;;5014020;28;20174;-87
2022/05/28 00:15:29;;;;;;;12.70;6.05;;;14.50;64.80;;;;;;5020244;28;20212;-87
2022/05/28 00:17:55;;;;;;;13.70;4.73;;;14.40;64.80;;;;;;5022154;28;20206;-87
2022/05/28 00:20:20;;;;;;;10.10;4.57;;;14.40;65.00;;;;;;5019835;28;20184;-87
2022/05/28 00:22:46;;;;;;;11.13;4.17;;;14.40;64.60;;;;;;5018953;28;20484;-87
2022/05/28 00:25:15;;;;;;;17.13;6.00;;;14.40;64.30;;;;;;5018600;28;20450;-88
2022/05/28 00:27:41;;;;;;;12.18;5.05;;;14.40;63.60;;;;;;5019289;28;20841;-87
2022/05/28 00:30:10;;;;;;;21.40;6.72;;;14.40;63.20;;;;;;5019043;28;20673;-87
2022/05/28 00:32:36;;;;;;;11.60;4.70;;;14.40;63.90;;;;;;5027583;28;20174;-89
2022/05/28 00:35:20;;;;;;;14.83;5.83;;;14.40;63.60;;;;;;5039688;28;20287;-89
2022/05/28 00:37:47;;;;;;;11.07;4.07;;;14.40;63.00;;;;;;5033920;28;20422;-87
2022/05/28 00:40:18;;;;;;;13.77;6.05;;;14.40;62.70;;;;;;5025464;28;20178;-87
2022/05/28 00:42:44;;;;;;;19.02;5.40;;;14.40;62.80;;;;;;5022290;28;20219;-87
2022/05/28 00:45:10;;;;;;;13.70;4.93;;;14.40;62.70;;;;;;5022053;28;20207;-87
2022/05/28 00:47:42;;;;;;;17.20;4.78;;;14.40;62.90;;;;;;5028580;28;20437;-87
2022/05/28 00:50:09;;;;;;;14.70;5.90;;;14.40;63.10;;;;;;5009616;28;20207;-86
2022/05/28 00:52:36;;;;;;;8.63;4.43;;;14.40;63.10;;;;;;5029668;28;20178;-87
2022/05/28 00:55:03;;;;;;;17.70;5.80;;;14.40;63.90;;;;;;5017444;28;20199;-87
2022/05/28 00:57:29;;;;;;;13.20;5.00;;;14.40;63.40;;;;;;5016940;28;20182;-86
2022/05/28 00:59:55;;;;;;;11.63;5.63;;;14.40;63.40;;;;;;5017285;28;20179;-86
2022/05/28 01:02:48;;;;;;;8.93;4.67;;;14.40;63.70;;;;;;5018930;28;20174;-86
2022/05/28 01:05:44;;;;;;;11.95;4.65;;;14.30;63.70;;;;;;5007530;28;20265;-87
2022/05/28 01:08:16;;;;;;;12.40;4.25;;;14.30;63.60;;;;;;4998191;28;20598;-88
2022/05/28 01:10:59;;;;;;;11.60;4.60;;;14.30;63.70;;;;;;4998274;28;20246;-87
2022/05/28 01:13:51;;;;;;;11.63;6.05;;;14.30;64.00;;;;;;4983150;28;20183;-87
2022/05/28 01:16:30;;;;;;;19.83;6.50;;;14.30;63.90;;;;;;5001715;28;20198;-87
2022/05/28 01:19:25;;;;;;;12.05;5.15;;;14.30;64.20;;;;;;4984688;28;20176;-87
2022/05/28 01:22:02;;;;;;;21.38;6.25;;;14.30;64.40;;;;;;4990805;28;20570;-86
2022/05/28 01:25:13;;;;;;;17.13;5.82;;;14.30;64.30;;;;;;5015462;28;20199;-87
2022/05/28 01:27:45;;;;;;;16.20;4.60;;;14.20;64.40;;;;;;4996589;28;20191;-87
2022/05/28 01:30:13;;;;;;;15.82;5.97;;;14.20;64.50;;;;;;5029238;28;20240;-87
2022/05/28 01:32:41;;;;;;;12.98;6.30;;;14.20;64.70;;;;;;5026427;28;20178;-87
2022/05/28 01:35:11;;;;;;;12.60;5.00;;;14.20;65.10;;;;;;5026565;28;20198;-86
2022/05/28 01:37:39;;;;;;;11.55;6.40;;;14.20;65.40;;;;;;5007690;28;20182;-87
2022/05/28 01:40:08;;;;;;;9.70;5.15;;;14.20;65.70;;;;;;5018697;28;20194;-86
2022/05/28 01:42:37;;;;;;;14.10;6.38;;;14.20;65.40;;;;;;5016742;28;20178;-87
2022/05/28 01:45:06;;;;;;;14.40;6.53;;;14.20;65.60;;;;;;5016564;28;20213;-87
2022/05/28 01:47:33;;;;;;;15.25;6.53;;;14.20;65.80;;;;;;5016185;28;20174;-86
2022/05/28 01:50:01;;;;;;;13.13;5.25;;;14.20;65.90;;;;;;5016650;28;20203;-87
2022/05/28 01:52:28;;;;;;;17.90;7.15;;;14.10;66.00;;;;;;5016794;28;20171;-87
2022/05/28 01:54:56;;;;;;;15.93;6.88;;;14.10;66.00;;;;;;5019304;28;20203;-87
2022/05/28 01:57:21;;;;;;;15.68;6.22;;;14.10;66.20;;;;;;5016435;28;20273;-87
2022/05/28 01:59:48;;;;;;;13.47;5.40;;;14.10;66.20;;;;;;5030968;28;20244;-87
2022/05/28 02:02:15;;;;;;;17.48;5.57;;;14.10;66.30;;;;;;5030722;28;20425;-86
2022/05/28 02:04:43;;;;;;;16.33;5.85;;;14.00;66.10;;;;;;5024280;28;20214;-86
2022/05/28 02:07:10;;;;;;;11.32;6.00;;;14.00;66.40;;;;;;5016297;28;20277;-87
2022/05/28 02:09:41;;;;;;;18.20;6.50;;;14.00;66.50;;;;;;5016362;28;20202;-87
2022/05/28 02:12:12;;;;;;;18.60;6.20;;;14.00;66.40;;;;;;4999735;28;20182;-87
2022/05/28 02:15:02;;;;;;;15.40;6.63;;;14.00;66.60;;;;;;5016402;28;20260;-87
2022/05/28 02:17:39;;;;;;;19.98;6.63;;;14.00;66.80;;;;;;5015359;28;20183;-87
2022/05/28 02:20:27;;;;;;;16.40;7.18;;;13.90;66.50;;;;;;5030411;28;20201;-88
2022/05/28 02:23:12;;;;;;;17.60;6.50;;;13.90;66.70;;;;;;5026838;28;20179;-88
2022/05/28 02:25:53;;;;;;;16.55;6.22;;;13.90;66.70;;;;;;5019210;28;20207;-87
2022/05/28 02:28:22;;;;;;;15.80;5.68;;;13.90;66.40;;;;;;5037121;28;20177;-87
2022/05/28 02:30:56;;;;;;;12.90;5.95;;;13.90;66.30;;;;;;5017135;28;20206;-86
2022/05/28 02:33:22;;;;;;;10.93;5.13;;;13.80;66.10;;;;;;5013276;28;20184;-87
2022/05/28 02:35:48;;;;;;;12.60;5.90;;;13.80;66.30;;;;;;4996445;28;20214;-87
2022/05/28 02:38:15;;;;;;;14.35;6.50;;;13.80;66.80;;;;;;5027434;28;20210;-88
2022/05/28 02:40:41;;;;;;;18.00;6.90;;;13.80;66.70;;;;;;5044513;28;20190;-87
2022/05/28 02:43:07;;;;;;;13.73;6.23;;;13.80;66.70;;;;;;5017381;28;20650;-88
2022/05/28 02:45:33;;;;;;;18.50;5.90;;;13.80;66.70;;;;;;5015765;28;20449;-87
2022/05/28 02:47:59;;;;;;;14.80;5.77;;;13.80;66.70;;;;;;5015198;28;20440;-87
2022/05/28 02:50:28;;;;;;;13.13;5.87;;;13.80;67.00;;;;;;5016064;28;20205;-87
2022/05/28 02:52:55;;;;;;;16.67;5.82;;;13.80;67.10;;;;;;5017545;28;20179;-86
2022/05/28 02:55:21;;;;;;;16.85;5.13;;;13.80;67.50;;;;;;5020726;28;20249;-87
2022/05/28 02:57:47;;;;;;;18.10;6.28;;;13.80;67.30;;;;;;5023609;28;20241;-86
2022/05/28 03:00:17;;;;;;;14.80;5.93;;;13.70;67.50;;;;;;5023577;28;20182;-87
2022/05/28 03:02:43;;;;;;;14.43;5.75;;;13.70;67.80;;;;;;5021464;28;20265;-87
2022/05/28 03:05:11;;;;;;;17.92;6.20;;;13.70;68.00;;;;;;5022187;28;20214;-87
2022/05/28 03:07:37;;;;;;;27.95;7.47;;;13.70;68.10;;;;;;5019590;28;20187;-87
2022/05/28 03:10:03;;;;;;;12.77;6.60;;;13.70;68.20;;;;;;5016209;28;20627;-87
2022/05/28 03:12:29;;;;;;;17.43;6.00;;;13.70;68.10;;;;;;5015725;28;20193;-87
2022/05/28 03:14:54;;;;;;;17.63;5.90;;;13.60;68.20;;;;;;5035125;28;20430;-87
2022/05/28 03:17:20;;;;;;;12.03;5.97;;;13.60;68.50;;;;;;5020120;28;20175;-87
2022/05/28 03:19:46;;;;;;;15.30;6.50;;;13.60;68.50;;;;;;5019806;28;20263;-87
2022/05/28 03:22:12;;;;;;;12.50;5.50;;;13.60;68.50;;;;;;5024700;28;20182;-87
2022/05/28 03:24:38;;;;;;;17.83;5.95;;;13.60;69.00;;;;;;5024864;28;20468;-87
2022/05/28 03:27:04;;;;;;;16.70;6.33;;;13.60;69.10;;;;;;5010265;28;20178;-87
2022/05/28 03:29:30;;;;;;;12.48;5.65;;;13.60;69.20;;;;;;4995745;28;20227;-86
2022/05/28 03:31:56;;;;;;;14.60;6.17;;;13.60;69.50;;;;;;4997210;28;20198;-87
2022/05/28 03:34:21;;;;;;;14.10;5.10;;;13.50;69.70;;;;;;4996948;28;20488;-87
2022/05/28 03:37:01;;;;;;;11.93;6.50;;;13.50;69.90;;;;;;4994484;28;20770;-86
2022/05/28 03:39:28;;;;;;;15.77;5.38;;;13.60;70.10;;;;;;4994986;28;20178;-87
2022/05/28 03:41:54;;;;;;;16.08;6.07;;;13.50;70.30;;;;;;4999929;28;20183;-87
2022/05/28 03:44:20;;;;;;;10.90;5.80;;;13.60;70.60;;;;;;4994971;28;20214;-87
2022/05/28 03:46:46;;;;;;;13.47;5.53;;;13.50;70.70;;;;;;4995934;28;20655;-87
2022/05/28 03:49:18;;;;;;;15.07;6.85;;;13.50;70.80;;;;;;4996271;28;20182;-88
2022/05/28 03:51:44;;;;;;;16.55;6.32;;;13.60;70.80;;;;;;5005002;28;20183;-87
2022/05/28 03:54:10;;;;;;;15.90;7.40;;;13.60;71.20;;;;;;5015334;28;20201;-87
2022/05/28 03:56:44;;;;;;;13.97;5.97;;;13.60;71.20;;;;;;5012027;28;20667;-87
2022/05/28 03:59:10;;;;;;;15.02;5.65;;;13.60;71.10;;;;;;5018518;28;20270;-89
2022/05/28 04:01:37;;;;;;;11.40;5.90;;;13.60;71.10;;;;;;5040343;28;20602;-91
2022/05/28 04:04:03;;;;;;;17.42;5.88;;;13.60;71.20;;;;;;5035614;28;20183;-90
2022/05/28 04:06:29;;;;;;;12.20;5.47;;;13.60;71.30;;;;;;5036531;28;20173;-89
2022/05/28 04:08:55;;;;;;;19.60;5.93;;;13.70;71.20;;;;;;5028310;28;20182;-86
2022/05/28 04:11:39;;;;;;;17.10;5.73;;;13.70;71.40;;;;;;5014651;28;20202;-87
2022/05/28 04:14:10;;;;;;;13.77;5.03;;;13.70;71.70;;;;;;5014176;28;20473;-87
2022/05/28 04:16:36;;;;;;;18.63;6.50;;;13.70;71.60;;;;;;5014326;28;20257;-87
2022/05/28 04:19:03;;;;;;;12.50;5.72;;;13.70;71.70;;;;;;5018027;28;20182;-88
2022/05/28 04:21:29;;;;;;;12.05;4.47;;;13.70;71.70;;;;;;5028015;28;20566;-87
2022/05/28 04:23:55;;;;;;;9.60;4.83;;;13.70;71.70;;;;;;5018210;28;20213;-88
2022/05/28 04:26:21;;;;;;;11.10;5.35;;;13.80;71.90;;;;;;5021374;28;20186;-87
2022/05/28 04:28:47;;;;;;;18.27;5.80;;;13.80;72.10;;;;;;5025310;28;20182;-87
2022/05/28 04:31:12;;;;;;;15.90;4.60;;;13.80;71.90;;;;;;5025849;28;20600;-87
2022/05/28 04:33:38;;;;;;;9.47;4.60;;;13.80;72.00;;;;;;5018090;28;20457;-88
2022/05/28 04:36:04;;;;;;;15.10;4.97;;;13.80;72.30;;;;;;5035837;28;20208;-86
2022/05/28 04:38:30;;;;;;;9.23;4.55;;;13.90;72.40;;;;;;5016975;28;20653;-86
2022/05/28 04:40:55;;;;;;;14.63;5.23;;;13.90;72.20;;;;;;5014813;28;20269;-87
2022/05/28 04:43:22;;;;;;;11.00;4.70;;;13.90;72.00;;;;;;5013797;28;20178;-88
2022/05/28 04:45:47;;;;;;;14.20;4.35;;;14.00;72.30;;;;;;5013595;28;20445;-88
2022/05/28 04:48:14;;;;;;;13.73;4.90;;;14.00;72.40;;;;;;5015063;28;20197;-87
2022/05/28 04:50:40;;;;;;;15.18;5.15;;;14.00;72.30;;;;;;4997692;28;20211;-87
2022/05/28 04:53:06;;;;;;;15.60;5.30;;;14.00;72.40;;;;;;4996378;28;20721;-88
2022/05/28 04:55:32;;;;;;;10.03;4.70;;;14.00;72.50;;;;;;4996735;28;20258;-88
2022/05/28 04:57:58;;;;;;;13.93;4.80;;;14.00;72.40;;;;;;4980096;28;20778;-88
2022/05/28 05:00:26;;;;;;;14.63;5.47;;;14.10;72.80;;;;;;4995256;28;20191;-87
2022/05/28 05:02:52;;;;;;;9.15;4.82;;;14.20;72.80;;;;;;4994326;28;20210;-88
2022/05/28 05:05:18;;;;;;;9.70;4.28;;;14.10;72.30;;;;;;4996421;28;20744;-87
2022/05/28 05:07:44;;;;;;;14.70;4.15;;;14.20;72.50;;;;;;4998627;28;20171;-88
2022/05/28 05:10:11;;;;;;;12.93;4.60;;;14.30;72.80;;;;;;5014064;28;20203;-88
2022/05/28 05:12:38;;;;;;;8.38;5.05;;;14.30;72.30;;;;;;5019295;28;20439;-87
2022/05/28 05:15:04;;;;;;;9.32;3.95;;;14.40;72.20;;;;;;5018531;28;20208;-87
2022/05/28 05:17:30;;;;;;;10.27;4.60;;;14.60;71.80;;;;;;5021384;28;20174;-87
2022/05/28 05:19:56;;;;;;;15.47;4.47;;;15.00;71.00;;;;;;5030948;28;20193;-88
2022/05/28 05:22:22;;;;;;;14.47;4.73;;;15.70;68.80;;;;;;5023625;28;20567;-87
2022/05/28 05:24:48;;;;;;;10.00;3.50;;;16.70;65.60;;;;;;5018512;28;20297;-87
2022/05/28 05:27:13;;;;;;;12.03;3.37;;;17.60;61.70;;;;;;5016989;28;20271;-88
2022/05/28 05:29:40;;;;;;;9.43;3.90;;;18.60;58.40;;;;;;5013391;28;20765;-87
2022/05/28 05:32:06;;;;;;;9.30;3.47;;;19.50;55.40;;;;;;5016806;28;20642;-88
2022/05/28 05:34:32;;;;;;;12.83;3.73;;;20.10;53.10;;;;;;5016775;28;20528;-88
2022/05/28 05:36:58;;;;;;;11.07;3.50;;;20.40;51.30;;;;;;5017194;28;20429;-88
2022/05/28 05:39:24;;;;;;;10.13;3.83;;;20.90;49.60;;;;;;5017841;28;20937;-87
2022/05/28 05:41:50;;;;;;;8.50;3.20;;;21.30;48.40;;;;;;5019801;28;20421;-88
2022/05/28 05:44:16;;;;;;;6.43;2.90;;;21.00;48.50;;;;;;5018251;28;20187;-88
2022/05/28 05:46:43;;;;;;;7.07;2.53;;;20.70;49.30;;;;;;5018865;28;20174;-88
2022/05/28 05:49:09;;;;;;;4.87;2.40;;;20.40;48.60;;;;;;5021269;28;20425;-87
2022/05/28 05:51:45;;;;;;;9.87;2.60;;;19.90;49.20;;;;;;5017843;28;20452;-87
2022/05/28 05:54:13;;;;;;;7.00;1.90;;;19.90;47.90;;;;;;5026793;28;20515;-88
2022/05/28 05:56:38;;;;;;;5.27;1.73;;;19.00;48.40;;;;;;5030186;28;20421;-87
2022/05/28 05:59:04;;;;;;;3.93;2.13;;;19.00;49.70;;;;;;5035553;28;20408;-87
2022/05/28 06:01:31;;;;;;;5.20;2.00;;;19.00;50.90;;;;;;5031695;28;20179;-87
2022/05/28 06:03:56;;;;;;;11.43;1.93;;;19.60;49.60;;;;;;5025882;28;20457;-88
2022/05/28 06:06:23;;;;;;;6.83;1.97;;;20.10;48.50;;;;;;5002836;28;20448;-88
2022/05/28 06:08:52;;;;;;;4.70;1.90;;;19.80;48.40;;;;;;5009480;28;20286;-87
2022/05/28 06:11:18;;;;;;;6.13;1.90;;;20.00;48.00;;;;;;5010131;28;20473;-88
2022/05/28 06:13:44;;;;;;;8.00;1.90;;;19.90;47.90;;;;;;5016371;28;20430;-87
2022/05/28 06:16:11;;;;;;;6.50;1.90;;;19.70;48.30;;;;;;5006706;28;20445;-87
2022/05/28 06:18:37;;;;;;;4.90;1.53;;;19.50;48.80;;;;;;5002231;28;20181;-88
2022/05/28 06:21:04;;;;;;;6.82;1.80;;;18.80;50.70;;;;;;4997344;28;20422;-88
2022/05/28 06:23:30;;;;;;;5.15;1.48;;;18.80;51.60;;;;;;5002088;28;20183;-87
2022/05/28 06:25:56;;;;;;;9.00;2.20;;;19.20;50.90;;;;;;5016721;28;20198;-88
2022/05/28 06:28:22;;;;;;;7.17;2.30;;;19.20;50.40;;;;;;5030434;28;20410;-88
2022/05/28 06:30:51;;;;;;;8.03;2.30;;;19.60;49.30;;;;;;5022691;28;20460;-88
2022/05/28 06:33:18;;;;;;;4.63;1.88;;;19.30;48.80;;;;;;5025346;28;20418;-87
2022/05/28 06:35:44;;;;;;;9.05;2.38;;;19.00;49.00;;;;;;5031529;28;20687;-90
2022/05/28 06:38:09;;;;;;;6.40;2.40;;;18.40;50.70;;;;;;5025706;28;20175;-89
2022/05/28 06:40:36;;;;;;;7.27;2.10;;;17.90;52.40;;;;;;5032874;28;20182;-89
2022/05/28 06:43:03;;;;;;;5.20;1.63;;;17.60;53.30;;;;;;5035212;28;20198;-87
2022/05/28 06:45:45;;;;;;;3.72;1.52;;;17.40;53.90;;;;;;5027965;28;20669;-88
2022/05/28 06:48:31;;;;;;;4.75;2.20;;;17.40;52.10;;;;;;5016034;28;20199;-88
2022/05/28 06:51:16;;;;;;;4.20;1.33;;;17.10;52.50;;;;;;5034551;28;20210;-88
2022/05/28 06:53:48;;;;;;;11.30;1.55;;;17.00;52.70;;;;;;4999927;28;20178;-88
2022/05/28 06:56:16;;;;;;;5.45;1.45;;;17.10;53.00;;;;;;5016795;28;20155;-88
2022/05/28 06:58:45;;;;;;;4.80;1.95;;;17.00;52.90;;;;;;5016008;28;20186;-88
2022/05/28 07:01:13;;;;;;;7.63;1.65;;;17.00;53.30;;;;;;5018363;28;20179;-88
2022/05/28 07:03:40;;;;;;;2.67;1.45;;;17.10;53.70;;;;;;5016993;28;20267;-88
2022/05/28 07:06:06;;;;;;;7.53;1.73;;;17.10;54.00;;;;;;5018755;28;20317;-88
2022/05/28 07:08:32;;;;;;;5.73;1.93;;;17.20;53.60;;;;;;5026301;28;20236;-87
2022/05/28 07:11:01;;;;;;;10.68;2.15;;;17.50;52.50;;;;;;5026855;28;20504;-90
2022/05/28 07:13:28;;;;;;;3.13;1.42;;;18.10;51.10;;;;;;5019018;28;20178;-88
2022/05/28 07:15:54;;;;;;;6.28;1.70;;;18.00;51.50;;;;;;5016020;28;20220;-87
2022/05/28 07:18:21;;;;;;;3.23;1.27;;;18.20;50.80;;;;;;5015690;28;20881;-88
2022/05/28 07:20:47;;;;;;;7.10;1.80;;;18.20;49.10;;;;;;5021260;28;20198;-87
2022/05/28 07:23:13;;;;;;;11.57;2.78;;;17.60;49.90;;;;;;5018008;28;20198;-88
2022/05/28 07:25:39;;;;;;;6.03;1.80;;;17.40;49.80;;;;;;5014568;28;20221;-87
2022/05/28 07:28:24;;;;;;;3.38;1.30;;;17.10;49.90;;;;;;5017087;28;20250;-87
2022/05/28 07:30:51;;;;;;;5.05;1.67;;;16.80;50.40;;;;;;5024000;28;20202;-87
2022/05/28 07:33:17;;;;;;;6.22;1.80;;;16.70;52.10;;;;;;5020450;28;20182;-87
2022/05/28 07:35:43;;;;;;;6.70;2.42;;;16.80;52.90;;;;;;5004526;28;20906;-87
2022/05/28 07:38:09;;;;;;;4.40;1.90;;;16.60;53.60;;;;;;5010119;28;20207;-87
2022/05/28 07:40:35;;;;;;;3.60;2.13;;;16.40;54.30;;;;;;5015276;28;20421;-87
2022/05/28 07:43:01;;;;;;;33.80;2.33;;;16.60;53.80;;;;;;5016685;28;20182;-87
2022/05/28 07:45:26;;;;;;;6.73;2.50;;;16.70;53.60;;;;;;5003551;28;20205;-87
2022/05/28 07:47:53;;;;;;;6.10;1.73;;;16.40;54.50;;;;;;5016016;28;20178;-87
2022/05/28 07:50:20;;;;;;;2.65;1.75;;;16.30;55.00;;;;;;5013800;28;20213;-87
2022/05/28 07:52:48;;;;;;;4.10;2.00;;;16.50;54.20;;;;;;5015093;28;20186;-87
2022/05/28 07:55:14;;;;;;;3.28;1.58;;;16.40;54.20;;;;;;5014717;28;20202;-88
2022/05/28 07:57:43;;;;;;;6.60;2.93;;;16.50;54.50;;;;;;5030893;28;20178;-87
2022/05/28 08:00:09;;;;;;;8.27;1.70;;;16.40;54.10;;;;;;4995332;28;20518;-87
2022/05/28 08:02:35;;;;;;;6.72;1.55;;;16.40;54.10;;;;;;5014165;28;20215;-88
2022/05/28 08:05:00;;;;;;;6.50;1.67;;;16.30;54.50;;;;;;5003577;28;20221;-87
2022/05/28 08:07:26;;;;;;;5.47;1.90;;;16.10;54.00;;;;;;5017130;28;20535;-88
2022/05/28 08:09:52;;;;;;;3.70;1.60;;;16.10;54.80;;;;;;5013360;28;20265;-87
2022/05/28 08:12:18;;;;;;;6.93;1.87;;;16.30;54.50;;;;;;5012172;28;20422;-87
2022/05/28 08:14:43;;;;;;;8.10;1.70;;;16.10;53.20;;;;;;5013537;28;20438;-88
2022/05/28 08:17:09;;;;;;;3.53;1.70;;;16.20;52.70;;;;;;5017595;28;20171;-89
2022/05/28 08:19:35;;;;;;;5.28;1.60;;;16.20;51.90;;;;;;5013304;28;20198;-88
2022/05/28 08:24:45;;;;;;;2.95;1.42;;;16.40;51.90;;;;;;5000155;28;20473;-89
2022/05/28 08:27:11;;;;;;;5.97;1.40;;;16.50;52.30;;;;;;5014077;28;20187;-88
2022/05/28 08:29:37;;;;;;;4.80;1.63;;;16.60;52.70;;;;;;5015487;28;20202;-89
2022/05/28 08:32:03;;;;;;;4.17;1.50;;;16.90;51.50;;;;;;5016216;28;20410;-88
2022/05/28 08:34:30;;;;;;;5.43;1.77;;;17.10;50.90;;;;;;4998962;28;20218;-88
2022/05/28 08:36:56;;;;;;;6.90;1.60;;;17.00;51.20;;;;;;5013744;28;20403;-89
2022/05/28 08:39:22;;;;;;;5.20;1.43;;;16.80;51.40;;;;;;5015211;28;20185;-88
2022/05/28 08:41:59;;;;;;;5.50;1.80;;;16.80;52.30;;;;;;5018772;28;20429;-89
2022/05/28 08:44:29;;;;;;;3.63;1.10;;;16.80;52.30;;;;;;5017690;28;20199;-90
2022/05/28 08:47:03;;;;;;;2.95;1.60;;;16.60;52.60;;;;;;5020011;28;20180;-89
2022/05/28 08:49:29;;;;;;;5.20;1.80;;;16.50;52.00;;;;;;5019053;28;20239;-89
2022/05/28 08:52:04;;;;;;;4.93;1.58;;;16.40;52.00;;;;;;5030666;28;20206;-88
2022/05/28 08:54:59;;;;;;;3.05;1.13;;;16.70;50.80;;;;;;5030902;28;20254;-89
2022/05/28 08:57:43;;;;;;;3.15;1.30;;;16.80;50.60;;;;;;5033251;28;20329;-88
2022/05/28 09:00:13;;;;;;;13.88;1.55;;;17.00;50.10;;;;;;5032321;28;20251;-90
2022/05/28 09:02:43;;;;;;;7.60;1.73;;;16.90;49.40;;;;;;5029566;28;20178;-89
2022/05/28 09:05:19;;;;;;;3.75;1.45;;;17.00;49.40;;;;;;5019559;28;20249;-89
2022/05/28 09:07:45;;;;;;;4.88;1.45;;;16.90;50.20;;;;;;5019058;28;20209;-89
2022/05/28 09:10:11;;;;;;;2.73;1.77;;;16.70;50.60;;;;;;5020270;28;20218;-88
2022/05/28 09:12:47;;;;;;;6.30;1.77;;;16.80;49.50;;;;;;5019714;28;20177;-89
2022/05/28 09:15:13;;;;;;;4.53;1.30;;;16.90;49.40;;;;;;5025975;28;20440;-90
2022/05/28 09:17:45;;;;;;;3.75;1.35;;;16.90;48.00;;;;;;5038121;28;20242;-90
2022/05/28 09:20:16;;;;;;;7.00;1.20;;;17.10;47.60;;;;;;5039264;28;20163;-89
2022/05/28 09:22:42;;;;;;;6.40;1.60;;;17.00;47.70;;;;;;5030685;28;20811;-88
2022/05/28 09:25:09;;;;;;;3.17;1.50;;;16.90;48.10;;;;;;5020213;28;20206;-89
2022/05/28 09:27:38;;;;;;;4.03;1.40;;;17.20;48.00;;;;;;5018931;28;20517;-88
2022/05/28 09:30:22;;;;;;;3.50;1.40;;;17.10;47.90;;;;;;5018584;28;20293;-89
2022/05/28 09:33:07;;;;;;;4.40;1.75;;;17.10;47.90;;;;;;5035141;28;20189;-88
2022/05/28 09:36:01;;;;;;;2.95;1.58;;;17.00;48.80;;;;;;5035506;28;20199;-88
2022/05/28 09:38:36;;;;;;;6.22;1.63;;;17.00;50.30;;;;;;5034040;28;20179;-88
2022/05/28 09:41:20;;;;;;;6.53;1.52;;;17.00;50.90;;;;;;5035205;28;20206;-89
2022/05/28 09:43:58;;;;;;;7.43;1.95;;;17.00;50.70;;;;;;5020519;28;20677;-88
2022/05/28 09:46:41;;;;;;;8.30;1.50;;;16.80;51.40;;;;;;5034612;28;20179;-88
2022/05/28 09:49:13;;;;;;;2.80;1.70;;;16.70;50.60;;;;;;5034526;28;20174;-88
2022/05/28 09:51:49;;;;;;;4.82;1.65;;;16.70;49.10;;;;;;5034121;28;20214;-88
2022/05/28 09:54:27;;;;;;;14.85;2.00;;;16.80;47.20;;;;;;5034024;28;20206;-88
2022/05/28 09:56:56;;;;;;;5.55;1.60;;;16.70;47.40;;;;;;5038684;28;20167;-91
2022/05/28 09:59:35;;;;;;;4.57;1.70;;;16.70;47.60;;;;;;5052218;28;20177;-90
2022/05/28 10:02:25;;;;;;;5.50;1.50;;;16.70;47.80;;;;;;5034834;28;20175;-90
2022/05/28 10:05:11;;;;;;;5.05;1.50;;;16.90;47.10;;;;;;5034310;28;20694;-88
2022/05/28 10:07:45;;;;;;;4.43;1.98;;;16.90;47.60;;;;;;5034700;28;20206;-89
2022/05/28 10:10:27;;;;;;;6.00;1.42;;;16.80;48.00;;;;;;5025788;28;20213;-90
2022/05/28 10:13:23;;;;;;;2.40;1.30;;;17.00;47.50;;;;;;5031925;28;20670;-89
2022/05/28 10:15:52;;;;;;;3.75;1.40;;;17.00;46.30;;;;;;5017061;28;20210;-89
2022/05/28 10:18:47;;;;;;;3.75;1.75;;;16.90;45.80;;;;;;5018008;28;20175;-89
2022/05/28 10:21:16;;;;;;;7.68;1.70;;;16.90;46.40;;;;;;5040863;28;20182;-90
2022/05/28 10:23:50;;;;;;;4.60;1.95;;;17.10;46.30;;;;;;5026472;28;20230;-89
2022/05/28 10:26:22;;;;;;;6.82;1.90;;;17.10;48.00;;;;;;5025926;28;20185;-90
2022/05/28 10:28:53;;;;;;;6.03;2.22;;;17.10;48.00;;;;;;5018491;28;20190;-89
2022/05/28 10:31:36;;;;;;;6.50;2.15;;;17.20;48.00;;;;;;5015202;28;20203;-89
2022/05/28 10:34:04;;;;;;;6.88;1.75;;;17.10;48.00;;;;;;5016974;28;20171;-90
2022/05/28 10:36:32;;;;;;;5.25;1.80;;;17.10;48.30;;;;;;5036067;28;20193;-91
2022/05/28 10:39:14;;;;;;;4.05;2.00;;;17.10;48.50;;;;;;5034398;28;20250;-90
2022/05/28 10:41:44;;;;;;;6.05;2.05;;;17.20;47.70;;;;;;5015075;28;20170;-90
2022/05/28 10:44:15;;;;;;;3.05;1.20;;;17.20;47.40;;;;;;5019330;28;20209;-90
2022/05/28 10:47:25;;;;;;;7.30;1.63;;;17.30;45.80;;;;;;5017912;28;20181;-91
2022/05/28 10:50:27;;;;;;;8.27;1.65;;;17.30;44.80;;;;;;5014646;28;20284;-90
2022/05/28 10:53:11;;;;;;;10.15;2.63;;;17.60;45.40;;;;;;4997372;28;20225;-92
2022/05/28 10:56:08;;;;;;;4.88;1.63;;;17.40;45.70;;;;;;4997522;28;20203;-92
2022/05/28 10:58:39;;;;;;;7.10;1.70;;;17.30;45.10;;;;;;5006453;28;20250;-92
2022/05/28 11:01:21;;;;;;;5.25;1.85;;;17.20;44.50;;;;;;5017885;28;20226;-92
2022/05/28 11:04:20;;;;;;;3.67;1.50;;;17.10;44.70;;;;;;5031741;28;20672;-92
2022/05/28 11:07:24;;;;;;;4.20;1.50;;;17.10;43.80;;;;;;5020364;28;20643;-91
2022/05/28 11:10:16;;;;;;;4.15;1.30;;;17.40;43.90;;;;;;5018548;28;20233;-92
2022/05/28 11:13:04;;;;;;;4.70;1.65;;;17.30;43.70;;;;;;5016642;28;20233;-93
2022/05/28 11:16:00;;;;;;;3.38;1.60;;;17.20;43.40;;;;;;5019632;28;20203;-93
2022/05/28 11:18:34;;;;;;;4.63;1.70;;;17.30;43.90;;;;;;5003713;28;20264;-91
2022/05/28 11:21:21;;;;;;;2.88;1.48;;;17.30;44.20;;;;;;5037494;28;20190;-91
2022/05/28 11:24:31;;;;;;;4.45;1.60;;;17.40;45.20;;;;;;5021932;28;20697;-92
2022/05/28 11:27:33;;;;;;;3.47;1.40;;;17.50;45.70;;;;;;5018032;28;20175;-92
2022/05/28 11:30:17;;;;;;;5.15;1.98;;;17.40;47.00;;;;;;5021283;28;20209;-90
2022/05/28 11:32:58;;;;;;;3.78;2.03;;;17.40;47.90;;;;;;5021924;28;20622;-92
2022/05/28 11:35:42;;;;;;;9.02;3.22;;;17.40;47.20;;;;;;5022846;28;20195;-90
2022/05/28 11:38:16;;;;;;;6.15;1.67;;;17.30;44.80;;;;;;5017656;28;20183;-90
2022/05/28 11:41:10;;;;;;;7.25;2.28;;;17.30;45.30;;;;;;5005781;28;20322;-91
2022/05/28 11:43:44;;;;;;;4.35;2.83;;;17.10;47.30;;;;;;5034449;28;20175;-91
2022/05/28 11:46:25;;;;;;;4.68;1.80;;;16.90;48.00;;;;;;5037814;28;20197;-90
2022/05/28 11:52:08;;;;;;;3.05;1.45;;;17.00;46.30;;;;;;5036541;28;20205;-93
2022/05/28 11:54:40;;;;;;;3.08;1.70;;;17.00;42.30;;;;;;5029775;28;20182;-92
2022/05/28 11:57:16;;;;;;;7.13;2.00;;;16.90;42.60;;;;;;5030700;28;20182;-93
2022/05/28 11:59:43;;;;;;;29.92;3.50;;;17.00;44.10;;;;;;5020014;28;20175;-93
2022/05/28 12:02:16;;;;;;;6.03;2.13;;;17.20;45.80;;;;;;5028086;28;20187;-96
2022/05/28 12:04:43;;;;;;;5.25;1.55;;;17.10;44.20;;;;;;5031871;28;20214;-92
2022/05/28 12:07:34;;;;;;;4.03;1.60;;;17.10;42.80;;;;;;5019972;28;20181;-90
2022/05/28 12:10:01;;;;;;;9.35;2.05;;;17.00;42.20;;;;;;5016602;28;20203;-90
2022/05/28 12:12:52;;;;;;;5.25;1.60;;;17.10;42.50;;;;;;5019846;28;20170;-89
2022/05/28 12:15:18;;;;;;;9.50;1.98;;;17.00;42.30;;;;;;5007105;28;20290;-90
2022/05/28 12:18:19;;;;;;;6.00;2.00;;;17.00;42.00;;;;;;5019410;28;20207;-90
2022/05/28 12:21:00;;;;;;;3.35;1.40;;;16.90;43.10;;;;;;5017337;28;20185;-90
2022/05/28 12:23:30;;;;;;;3.28;1.90;;;17.00;42.70;;;;;;5022608;28;20170;-89
2022/05/28 12:25:56;;;;;;;3.83;1.65;;;16.80;42.90;;;;;;5017925;28;20697;-88
2022/05/28 12:28:31;;;;;;;10.53;1.60;;;16.80;42.80;;;;;;5014803;28;20190;-90
2022/05/28 12:31:02;;;;;;;10.00;2.00;;;16.80;43.50;;;;;;5025632;28;20457;-90
2022/05/28 12:33:52;;;;;;;16.33;2.35;;;16.90;44.60;;;;;;5019625;28;20182;-89
2022/05/28 12:36:28;;;;;;;10.05;2.63;;;17.10;45.30;;;;;;5021304;28;20229;-90
2022/05/28 12:39:26;;;;;;;3.60;1.50;;;17.20;45.30;;;;;;5020224;28;20221;-90
2022/05/28 12:42:03;;;;;;;3.83;1.70;;;17.20;43.90;;;;;;5015782;28;20194;-89
2022/05/28 12:44:29;;;;;;;6.47;2.10;;;17.10;42.40;;;;;;5015566;28;20238;-89
2022/05/28 12:47:00;;;;;;;3.22;1.38;;;17.00;42.90;;;;;;5015434;28;20245;-89
2022/05/28 12:49:43;;;;;;;2.45;1.58;;;17.00;42.40;;;;;;5025071;28;20185;-89
2022/05/28 12:52:30;;;;;;;8.65;1.73;;;16.90;42.30;;;;;;5023749;28;20555;-93
2022/05/28 12:55:29;;;;;;;7.20;2.03;;;16.90;41.80;;;;;;5024982;28;20202;-94
2022/05/28 12:58:11;;;;;;;7.55;1.85;;;16.80;40.50;;;;;;5020274;28;20182;-93
2022/05/28 13:01:00;;;;;;;6.85;2.00;;;16.80;40.30;;;;;;5020769;28;20182;-91
2022/05/28 13:03:32;;;;;;;3.47;1.75;;;16.90;41.60;;;;;;5020971;28;20277;-91
2022/05/28 13:06:24;;;;;;;9.55;1.40;;;17.00;41.00;;;;;;5019793;28;20230;-91
2022/05/28 13:08:58;;;;;;;3.08;1.42;;;17.10;40.50;;;;;;5002182;28;20186;-91
2022/05/28 13:11:50;;;;;;;2.85;1.48;;;17.20;39.60;;;;;;5017310;28;20247;-89
2022/05/28 13:14:53;;;;;;;5.28;1.27;;;17.30;39.70;;;;;;4981577;28;20219;-90